createdAt,value
2019-04-29T00:01:42.237Z,100351.16
2019-04-29T00:04:14.033Z,100348.78
2019-04-29T00:06:45.657Z,100349.02
2019-04-29T00:09:19.497Z,100354.08
2019-04-29T00:11:51.032Z,100357.19
2019-04-29T00:14:22.551Z,100352.20
2019-04-29T00:16:58.855Z,100355.63
2019-04-29T00:19:32.186Z,100346.63
2019-04-29T00:22:03.960Z,100352.62
2019-04-29T00:24:35.310Z,100353.64
2019-04-29T00:27:09.180Z,100351.05
2019-04-29T00:29:40.614Z,100357.34
2019-04-29T00:32:12.621Z,100352.28
2019-04-29T00:34:44.042Z,100350.79
2019-04-29T00:37:32.873Z,100359.19
2019-04-29T00:40:23.462Z,100359.56
2019-04-29T00:43:13.811Z,100354.24
2019-04-29T00:45:50.483Z,100358.36
2019-04-29T00:48:30.083Z,100361.80
2019-04-29T00:51:04.543Z,100355.14
2019-04-29T00:53:36.305Z,100358.47
2019-04-29T00:56:12.813Z,100363.55
2019-04-29T00:58:45.259Z,100357.97
2019-04-29T01:01:18.462Z,100361.80
2019-04-29T01:03:50.405Z,100368.38
2019-04-29T01:06:22.066Z,100361.39
2019-04-29T01:08:53.831Z,100356.23
2019-04-29T01:11:25.681Z,100356.57
2019-04-29T01:13:57.313Z,100359.97
2019-04-29T01:16:28.932Z,100352.56
2019-04-29T01:19:03.777Z,100354.06
2019-04-29T01:21:34.459Z,100355.23
2019-04-29T01:24:06.171Z,100356.21
2019-04-29T01:26:58.072Z,100360.13
2019-04-29T01:29:39.201Z,100355.59
2019-04-29T01:32:11.728Z,100355.31
2019-04-29T01:34:44.952Z,100360.48
2019-04-29T01:37:16.658Z,100368.12
2019-04-29T01:39:55.985Z,100373.13
2019-04-29T01:42:32.465Z,100365.80
2019-04-29T01:45:04.332Z,100369.02
2019-04-29T01:47:35.654Z,100362.67
2019-04-29T01:50:07.647Z,100365.16
2019-04-29T01:52:39.203Z,100366.70
2019-04-29T01:55:11.038Z,100372.91
2019-04-29T01:57:42.719Z,100375.05
2019-04-29T02:00:15.708Z,100378.12
2019-04-29T02:02:47.362Z,100379.97
2019-04-29T02:05:19.036Z,100385.04
2019-04-29T02:07:50.686Z,100387.38
2019-04-29T02:10:24.028Z,100388.03
2019-04-29T02:12:55.950Z,100394.59
2019-04-29T02:15:27.686Z,100394.79
2019-04-29T02:17:59.317Z,100390.57
2019-04-29T02:20:30.995Z,100350.66
2019-04-29T02:23:04.260Z,100406.86
2019-04-29T02:25:40.587Z,100402.84
2019-04-29T02:28:12.125Z,100405.22
2019-04-29T02:30:46.934Z,100405.91
2019-04-29T02:33:18.404Z,100406.25
2019-04-29T02:35:51.889Z,100398.70
2019-04-29T02:38:38.414Z,100401.20
2019-04-29T02:41:11.903Z,100400.55
2019-04-29T02:43:47.851Z,100391.50
2019-04-29T02:46:19.649Z,100399.52
2019-04-29T02:48:51.394Z,100403.88
2019-04-29T02:51:41.011Z,100403.23
2019-04-29T02:54:13.152Z,100408.28
2019-04-29T02:56:46.263Z,100408.98
2019-04-29T02:59:29.388Z,100406.11
2019-04-29T03:02:15.483Z,100410.97
2019-04-29T03:04:52.247Z,100409.78
2019-04-29T03:07:24.343Z,100406.11
2019-04-29T03:09:56.471Z,100404.77
2019-04-29T03:12:28.113Z,100402.73
2019-04-29T03:14:59.974Z,100405.27
2019-04-29T03:17:32.192Z,100417.70
2019-04-29T03:20:12.386Z,100419.05
2019-04-29T03:22:46.031Z,100416.18
2019-04-29T03:25:17.555Z,100422.20
2019-04-29T03:27:50.359Z,100419.67
2019-04-29T03:30:22.217Z,100416.61
2019-04-29T03:32:53.923Z,100419.29
2019-04-29T03:35:26.686Z,100420.09
2019-04-29T03:37:59.262Z,100416.91
2019-04-29T03:40:30.811Z,100411.23
2019-04-29T03:43:02.842Z,100415.26
2019-04-29T03:45:34.501Z,100412.23
2019-04-29T03:48:06.443Z,100423.61
2019-04-29T03:50:38.362Z,100426.25
2019-04-29T03:53:09.846Z,100425.06
2019-04-29T03:55:42.874Z,100425.25
2019-04-29T03:58:14.593Z,100430.37
2019-04-29T04:00:47.955Z,100432.95
2019-04-29T04:03:24.096Z,100428.44
2019-04-29T04:06:01.152Z,100432.20
2019-04-29T04:08:34.803Z,100441.59
2019-04-29T04:11:06.637Z,100431.78
2019-04-29T04:13:38.121Z,100437.07
2019-04-29T04:16:11.706Z,100435.68
2019-04-29T04:18:43.553Z,100441.65
2019-04-29T04:21:17.349Z,100440.09
2019-04-29T04:23:49.087Z,100442.45
2019-04-29T04:26:21.879Z,100447.49
2019-04-29T04:28:53.813Z,100445.84
2019-04-29T04:31:25.550Z,100452.66
2019-04-29T04:33:59.020Z,100451.89
2019-04-29T04:36:30.852Z,100456.98
2019-04-29T04:39:02.991Z,100463.77
2019-04-29T04:41:36.510Z,100452.48
2019-04-29T04:44:08.428Z,100458.15
2019-04-29T04:46:40.220Z,100456.87
2019-04-29T04:49:15.605Z,100461.27
2019-04-29T04:51:45.188Z,100462.45
2019-04-29T04:54:17.190Z,100462.45
2019-04-29T04:56:49.018Z,100466.27
2019-04-29T04:59:20.909Z,100464.59
2019-04-29T05:01:52.593Z,100464.41
2019-04-29T05:04:25.571Z,100468.36
2019-04-29T05:06:58.225Z,100459.17
2019-04-29T05:09:30.159Z,100464.27
2019-04-29T05:12:01.853Z,100458.02
2019-04-29T05:14:33.465Z,100462.62
2019-04-29T05:17:05.308Z,100465.20
2019-04-29T05:19:38.151Z,100469.44
2019-04-29T05:22:10.435Z,100472.69
2019-04-29T05:24:42.107Z,100464.05
2019-04-29T05:27:14.057Z,100465.52
2019-04-29T05:29:45.815Z,100461.02
2019-04-29T05:32:17.714Z,100458.59
2019-04-29T05:34:51.255Z,100460.37
2019-04-29T05:37:25.718Z,100466.20
2019-04-29T05:39:58.094Z,100465.27
2019-04-29T05:42:30.245Z,100466.97
2019-04-29T05:45:09.883Z,100471.31
2019-04-29T05:47:44.576Z,100471.09
2019-04-29T05:50:35.322Z,100473.48
2019-04-29T05:53:11.439Z,100465.61
2019-04-29T05:55:43.341Z,100475.25
2019-04-29T05:58:16.154Z,100472.84
2019-04-29T06:01:01.975Z,100471.12
2019-04-29T06:03:38.036Z,100472.59
2019-04-29T06:06:12.205Z,100472.30
2019-04-29T06:08:42.953Z,100468.54
2019-04-29T06:11:17.686Z,100471.39
2019-04-29T06:13:51.183Z,100472.13
2019-04-29T06:16:23.215Z,100470.86
2019-04-29T06:19:00.409Z,100474.48
2019-04-29T06:21:28.794Z,100474.28
2019-04-29T06:24:04.475Z,100471.66
2019-04-29T06:26:34.145Z,100466.48
2019-04-29T06:29:06.245Z,100473.80
2019-04-29T06:31:38.582Z,100468.52
2019-04-29T06:34:10.662Z,100470.50
2019-04-29T06:36:43.557Z,100463.64
2019-04-29T06:39:15.779Z,100467.23
2019-04-29T06:41:47.688Z,100467.11
2019-04-29T06:44:19.432Z,100466.91
2019-04-29T06:46:54.516Z,100472.64
2019-04-29T06:49:25.114Z,100472.95
2019-04-29T06:51:58.492Z,100475.94
2019-04-29T06:54:30.353Z,100472.13
2019-04-29T06:57:02.255Z,100478.05
2019-04-29T06:59:34.207Z,100473.16
2019-04-29T07:02:09.353Z,100476.88
2019-04-29T07:04:41.610Z,100479.20
2019-04-29T07:07:14.872Z,100485.17
2019-04-29T07:09:46.833Z,100488.58
2019-04-29T07:12:19.550Z,100480.56
2019-04-29T07:14:51.373Z,100477.80
2019-04-29T07:17:24.986Z,100481.45
2019-04-29T07:20:02.078Z,100473.78
2019-04-29T07:22:43.255Z,100472.64
2019-04-29T07:25:15.920Z,100480.13
2019-04-29T07:27:49.176Z,100472.53
2019-04-29T07:30:21.256Z,100475.98
2019-04-29T07:32:54.103Z,100475.02
2019-04-29T07:35:26.050Z,100472.52
2019-04-29T07:37:58.027Z,100474.98
2019-04-29T07:40:30.174Z,100477.81
2019-04-29T07:43:02.853Z,100481.94
2019-04-29T07:45:44.003Z,100481.80
2019-04-29T07:48:10.584Z,100488.26
2019-04-29T07:50:45.513Z,100490.91
2019-04-29T07:53:20.942Z,100485.45
2019-04-29T07:55:52.440Z,100493.27
2019-04-29T07:58:27.389Z,100491.44
2019-04-29T08:00:57.975Z,100452.69
2019-04-29T08:03:31.870Z,100485.26
2019-04-29T08:06:04.908Z,100478.05
2019-04-29T08:08:38.830Z,100483.04
2019-04-29T08:11:12.747Z,100478.59
2019-04-29T08:13:45.781Z,100481.48
2019-04-29T08:16:19.238Z,100476.25
2019-04-29T08:18:53.604Z,100478.38
2019-04-29T08:21:24.586Z,100486.28
2019-04-29T08:23:58.600Z,100486.28
2019-04-29T08:26:33.581Z,100491.70
2019-04-29T08:29:04.641Z,100491.19
2019-04-29T08:31:38.926Z,100489.38
2019-04-29T08:34:12.285Z,100488.39
2019-04-29T08:36:50.513Z,100491.75
2019-04-29T08:39:25.199Z,100482.44
2019-04-29T08:42:03.740Z,100492.06
2019-04-29T08:44:43.119Z,100485.49
2019-04-29T08:47:23.678Z,100488.47
2019-04-29T08:49:54.532Z,100494.31
2019-04-29T08:52:26.691Z,100491.07
2019-04-29T08:55:04.721Z,100478.54
2019-04-29T08:57:45.436Z,100492.54
2019-04-29T09:00:18.862Z,100498.27
2019-04-29T09:02:50.537Z,100492.94
2019-04-29T09:05:24.017Z,100500.77
2019-04-29T09:07:57.375Z,100492.62
2019-04-29T09:10:33.042Z,100493.98
2019-04-29T09:13:05.341Z,100492.84
2019-04-29T09:15:37.124Z,100501.77
2019-04-29T09:18:11.298Z,100498.81
2019-04-29T09:20:43.200Z,100498.75
2019-04-29T09:23:19.821Z,100490.00
2019-04-29T09:26:02.552Z,100502.53
2019-04-29T09:28:29.873Z,100506.84
2019-04-29T09:31:01.883Z,100516.45
2019-04-29T09:33:35.759Z,100508.73
2019-04-29T09:36:09.668Z,100514.58
2019-04-29T09:38:41.414Z,100519.59
2019-04-29T09:41:35.035Z,100520.60
2019-04-29T09:44:09.331Z,100527.20
2019-04-29T09:46:40.941Z,100521.85
2019-04-29T09:49:14.653Z,100526.95
2019-04-29T09:51:47.118Z,100529.91
2019-04-29T09:54:20.203Z,100529.86
2019-04-29T09:56:52.066Z,100529.98
2019-04-29T09:59:32.295Z,100532.39
2019-04-29T10:02:12.927Z,100528.18
2019-04-29T10:04:56.823Z,100532.98
2019-04-29T10:07:26.957Z,100533.53
2019-04-29T10:10:06.941Z,100535.21
2019-04-29T10:12:38.905Z,100537.40
2019-04-29T10:15:39.875Z,100539.08
2019-04-29T10:21:05.812Z,100552.52
2019-04-29T10:23:54.351Z,100554.73
2019-04-29T10:26:29.069Z,100554.02
2019-04-29T10:29:03.545Z,100559.08
2019-04-29T10:31:38.236Z,100550.91
2019-04-29T10:34:13.839Z,100561.91
2019-04-29T10:36:52.214Z,100561.64
2019-04-29T10:39:42.416Z,100553.88
2019-04-29T10:42:42.102Z,100557.81
2019-04-29T10:45:36.187Z,100565.19
2019-04-29T10:48:19.083Z,100566.77
2019-04-29T10:50:54.026Z,100564.35
2019-04-29T10:53:28.805Z,100561.53
2019-04-29T10:56:05.630Z,100555.01
2019-04-29T10:58:45.423Z,100569.84
2019-04-29T11:02:09.136Z,100565.77
2019-04-29T11:04:47.019Z,100566.61
2019-04-29T11:07:39.298Z,100564.16
2019-04-29T11:10:25.345Z,100559.84
2019-04-29T11:13:04.421Z,100558.88
2019-04-29T11:15:49.522Z,100552.08
2019-04-29T11:18:24.903Z,100555.98
2019-04-29T11:21:01.096Z,100556.83
2019-04-29T11:23:43.569Z,100556.53
2019-04-29T11:26:37.527Z,100552.14
2019-04-29T11:29:29.162Z,100550.34
2019-04-29T11:32:04.874Z,100551.37
2019-04-29T11:34:48.383Z,100551.50
2019-04-29T11:37:24.243Z,100552.36
2019-04-29T11:39:58.707Z,100558.34
2019-04-29T11:42:36.783Z,100563.19
2019-04-29T11:45:15.316Z,100565.29
2019-04-29T11:47:50.858Z,100561.42
2019-04-29T11:50:45.250Z,100558.97
2019-04-29T11:53:18.019Z,100555.92
2019-04-29T11:55:52.517Z,100557.42
2019-04-29T11:58:30.325Z,100557.73
2019-04-29T12:01:37.934Z,100563.21
2019-04-29T12:04:16.549Z,100561.47
2019-04-29T12:06:51.360Z,100558.31
2019-04-29T12:09:25.450Z,100563.00
2019-04-29T12:11:57.461Z,100559.16
2019-04-29T12:14:41.422Z,100554.04
2019-04-29T12:17:15.842Z,100548.18
2019-04-29T12:19:48.975Z,100545.76
2019-04-29T12:22:30.330Z,100544.68
2019-04-29T12:24:54.207Z,100543.06
2019-04-29T12:27:29.154Z,100540.73
2019-04-29T12:30:01.735Z,100543.16
2019-04-29T12:32:36.087Z,100542.79
2019-04-29T12:35:16.713Z,100538.00
2019-04-29T12:37:48.565Z,100538.65
2019-04-29T12:40:39.171Z,100542.89
2019-04-29T12:43:17.736Z,100543.70
2019-04-29T12:45:57.214Z,100544.77
2019-04-29T12:48:30.887Z,100536.30
2019-04-29T12:51:03.832Z,100531.98
2019-04-29T12:53:35.666Z,100539.81
2019-04-29T12:56:11.461Z,100497.14
2019-04-29T12:58:41.021Z,100540.53
2019-04-29T13:01:50.254Z,100535.52
2019-04-29T13:04:10.856Z,100538.19
2019-04-29T13:06:48.161Z,100537.15
2019-04-29T13:09:30.701Z,100527.56
2019-04-29T13:12:17.677Z,100523.43
2019-04-29T13:14:39.130Z,100526.39
2019-04-29T13:17:14.743Z,100530.95
2019-04-29T13:20:01.553Z,100533.53
2019-04-29T13:22:27.068Z,100537.13
2019-04-29T13:24:58.992Z,100543.09
2019-04-29T13:27:30.553Z,100538.14
2019-04-29T13:30:07.246Z,100538.72
2019-04-29T13:32:37.309Z,100538.55
2019-04-29T13:35:12.226Z,100535.13
2019-04-29T13:37:43.358Z,100532.25
2019-04-29T13:40:15.330Z,100530.11
2019-04-29T13:42:50.988Z,100533.68
2019-04-29T13:45:36.318Z,100533.09
2019-04-29T13:48:18.255Z,100531.47
2019-04-29T13:50:53.196Z,100532.21
2019-04-29T13:53:25.023Z,100535.95
2019-04-29T13:56:10.981Z,100545.13
2019-04-29T13:58:36.598Z,100540.23
2019-04-29T14:01:23.872Z,100541.48
2019-04-29T14:03:51.408Z,100544.28
2019-04-29T14:06:23.205Z,100546.81
2019-04-29T14:08:54.769Z,100533.45
2019-04-29T14:11:27.713Z,100539.84
2019-04-29T14:13:59.396Z,100540.01
2019-04-29T14:16:32.488Z,100540.38
2019-04-29T14:19:04.157Z,100538.06
2019-04-29T14:21:36.211Z,100539.07
2019-04-29T14:24:08.785Z,100540.02
2019-04-29T14:26:44.936Z,100543.56
2019-04-29T14:29:15.744Z,100538.69
2019-04-29T14:31:49.082Z,100545.37
2019-04-29T14:34:22.433Z,100539.34
2019-04-29T14:37:18.440Z,100543.23
2019-04-29T14:39:37.415Z,100541.72
2019-04-29T14:42:17.110Z,100543.38
2019-04-29T14:44:50.487Z,100542.35
2019-04-29T14:47:25.762Z,100544.33
2019-04-29T14:50:02.059Z,100539.34
2019-04-29T14:52:35.402Z,100540.68
2019-04-29T14:55:08.052Z,100534.31
2019-04-29T14:57:40.947Z,100535.16
2019-04-29T15:00:19.763Z,100541.98
2019-04-29T15:02:55.789Z,100533.63
2019-04-29T15:05:25.570Z,100531.30
2019-04-29T15:07:57.380Z,100527.59
2019-04-29T15:10:31.132Z,100528.58
2019-04-29T15:13:20.807Z,100525.54
2019-04-29T15:16:04.362Z,100523.86
2019-04-29T15:18:47.273Z,100518.13
2019-04-29T15:21:32.335Z,100517.14
2019-04-29T15:23:57.800Z,100521.47
2019-04-29T15:26:30.885Z,100516.84
2019-04-29T15:29:03.343Z,100524.81
2019-04-29T15:31:35.205Z,100527.47
2019-04-29T15:34:08.812Z,100534.85
2019-04-29T15:36:42.038Z,100532.88
2019-04-29T15:39:14.605Z,100529.83
2019-04-29T15:41:46.657Z,100540.84
2019-04-29T15:44:20.402Z,100544.67
2019-04-29T15:46:52.103Z,100540.44
2019-04-29T15:49:24.666Z,100544.45
2019-04-29T15:51:57.400Z,100549.00
2019-04-29T15:54:32.271Z,100536.04
2019-04-29T15:57:09.127Z,100547.27
2019-04-29T15:59:48.837Z,100557.80
2019-04-29T16:02:14.586Z,100547.06
2019-04-29T16:05:00.113Z,100547.41
2019-04-29T16:07:51.530Z,100543.34
2019-04-29T16:10:34.457Z,100545.66
2019-04-29T16:13:10.786Z,100545.30
2019-04-29T16:15:47.077Z,100542.34
2019-04-29T16:18:19.903Z,100539.95
2019-04-29T16:20:54.047Z,100547.42
2019-04-29T16:23:25.196Z,100550.94
2019-04-29T16:25:57.126Z,100551.98
2019-04-29T16:28:31.371Z,100561.70
2019-04-29T16:31:05.049Z,100556.88
2019-04-29T16:33:36.835Z,100561.73
2019-04-29T16:36:08.557Z,100558.84
2019-04-29T16:38:40.402Z,100566.02
2019-04-29T16:41:27.367Z,100564.95
2019-04-29T16:44:01.201Z,100568.95
2019-04-29T16:46:37.511Z,100569.20
2019-04-29T16:49:07.614Z,100576.91
2019-04-29T16:51:40.765Z,100576.22
2019-04-29T16:54:19.411Z,100566.90
2019-04-29T16:56:46.047Z,100570.66
2019-04-29T16:59:18.002Z,100574.67
2019-04-29T17:01:49.945Z,100570.49
2019-04-29T17:04:21.976Z,100578.56
2019-04-29T17:07:11.855Z,100575.04
2019-04-29T17:09:31.722Z,100581.48
2019-04-29T17:12:03.853Z,100582.63
2019-04-29T17:15:02.440Z,100590.22
2019-04-29T17:17:15.932Z,100590.66
2019-04-29T17:19:48.277Z,100594.23
2019-04-29T17:22:25.919Z,100597.76
2019-04-29T17:24:53.839Z,100592.72
2019-04-29T17:27:45.360Z,100592.48
2019-04-29T17:30:38.322Z,100599.02
2019-04-29T17:33:25.809Z,100598.36
2019-04-29T17:35:51.306Z,100606.19
2019-04-29T17:38:24.577Z,100586.52
2019-04-29T17:40:56.486Z,100602.67
2019-04-29T17:43:42.947Z,100592.30
2019-04-29T17:46:30.980Z,100598.31
2019-04-29T17:49:05.274Z,100590.52
2019-04-29T17:51:38.567Z,100588.45
2019-04-29T17:54:18.447Z,100590.03
2019-04-29T17:57:08.611Z,100592.22
2019-04-29T17:59:32.494Z,100584.70
2019-04-29T18:02:08.982Z,100589.43
2019-04-29T18:04:45.598Z,100590.41
2019-04-29T18:07:25.245Z,100594.96
2019-04-29T18:10:05.097Z,100592.78
2019-04-29T18:12:40.923Z,100592.81
2019-04-29T18:15:17.679Z,100599.37
2019-04-29T18:17:49.293Z,100602.44
2019-04-29T18:20:30.801Z,100613.54
2019-04-29T18:23:19.124Z,100622.56
2019-04-29T18:25:52.444Z,100616.44
2019-04-29T18:28:25.950Z,100619.41
2019-04-29T18:31:00.236Z,100614.66
2019-04-29T18:33:32.670Z,100615.34
2019-04-29T18:36:06.953Z,100608.96
2019-04-29T18:38:42.441Z,100602.94
2019-04-29T18:41:16.377Z,100596.11
2019-04-29T18:43:46.625Z,100597.31
2019-04-29T18:46:18.730Z,100605.02
2019-04-29T18:48:50.340Z,100601.38
2019-04-29T18:51:25.686Z,100605.90
2019-04-29T18:53:55.608Z,100599.59
2019-04-29T18:56:27.617Z,100601.31
2019-04-29T18:59:00.921Z,100599.52
2019-04-29T19:01:34.928Z,100587.05
2019-04-29T19:04:25.469Z,100592.06
2019-04-29T19:07:02.133Z,100590.20
2019-04-29T19:09:35.758Z,100600.68
2019-04-29T19:12:14.534Z,100598.38
2019-04-29T19:14:59.745Z,100593.23
2019-04-29T19:17:30.764Z,100593.39
2019-04-29T19:20:01.449Z,100600.35
2019-04-29T19:22:33.413Z,100598.38
2019-04-29T19:25:08.688Z,100591.80
2019-04-29T19:27:40.813Z,100573.80
2019-04-29T19:30:20.682Z,100593.34
2019-04-29T19:32:48.646Z,100577.83
2019-04-29T19:35:29.510Z,100588.17
2019-04-29T19:38:00.249Z,100582.75
2019-04-29T19:40:41.199Z,100579.88
2019-04-29T19:43:10.230Z,100580.34
2019-04-29T19:45:44.739Z,100574.75
2019-04-29T19:48:16.277Z,100577.97
2019-04-29T19:50:59.642Z,100571.80
2019-04-29T19:53:25.163Z,100566.55
2019-04-29T19:56:04.154Z,100567.13
2019-04-29T19:58:32.209Z,100572.66
2019-04-29T20:01:11.629Z,100575.23
2019-04-29T20:03:49.488Z,100580.70
2019-04-29T20:06:25.759Z,100572.66
2019-04-29T20:08:57.142Z,100582.70
2019-04-29T20:11:32.736Z,100581.72
2019-04-29T20:14:05.446Z,100582.01
2019-04-29T20:16:59.399Z,100583.25
2019-04-29T20:19:45.618Z,100577.92
2019-04-29T20:22:16.905Z,100571.45
2019-04-29T20:24:50.751Z,100573.51
2019-04-29T20:27:26.146Z,100582.01
2019-04-29T20:29:56.789Z,100576.57
2019-04-29T20:32:31.863Z,100577.83
2019-04-29T20:35:07.058Z,100573.99
2019-04-29T20:37:36.444Z,100579.42
2019-04-29T20:40:09.007Z,100576.03
2019-04-29T20:42:45.242Z,100578.77
2019-04-29T20:45:20.153Z,100573.44
2019-04-29T20:47:52.687Z,100583.05
2019-04-29T20:50:31.067Z,100572.23
2019-04-29T20:53:05.773Z,100572.70
2019-04-29T20:55:39.798Z,100570.68
2019-04-29T20:58:15.680Z,100578.32
2019-04-29T21:00:47.699Z,100568.17
2019-04-29T21:03:27.836Z,100570.59
2019-04-29T21:06:02.720Z,100574.78
2019-04-29T21:08:31.322Z,100574.59
2019-04-29T21:11:05.757Z,100581.83
2019-04-29T21:13:42.207Z,100580.98
2019-04-29T21:16:16.859Z,100571.16
2019-04-29T21:18:58.910Z,100580.17
2019-04-29T21:21:31.692Z,100578.59
2019-04-29T21:24:12.920Z,100571.30
2019-04-29T21:26:44.431Z,100577.69
2019-04-29T21:29:19.357Z,100572.06
2019-04-29T21:31:58.476Z,100580.38
2019-04-29T21:34:29.670Z,100579.34
2019-04-29T21:37:06.586Z,100577.43
2019-04-29T21:39:39.110Z,100574.56
2019-04-29T21:42:16.262Z,100574.14
2019-04-29T21:44:48.781Z,100569.39
2019-04-29T21:47:22.284Z,100569.42
2019-04-29T21:49:56.270Z,100565.78
2019-04-29T21:52:27.267Z,100565.59
2019-04-29T21:54:58.974Z,100565.39
2019-04-29T21:57:30.791Z,100563.02
2019-04-29T22:00:03.420Z,100559.83
2019-04-29T22:02:36.738Z,100559.89
2019-04-29T22:05:13.744Z,100567.02
2019-04-29T22:07:44.691Z,100563.14
2019-04-29T22:10:22.703Z,100559.21
2019-04-29T22:12:50.963Z,100557.39
2019-04-29T22:15:30.700Z,100562.59
2019-04-29T22:18:01.311Z,100555.59
2019-04-29T22:20:37.363Z,100558.78
2019-04-29T22:23:08.351Z,100555.34
2019-04-29T22:25:41.071Z,100565.52
2019-04-29T22:28:16.075Z,100558.75
2019-04-29T22:30:49.819Z,100559.67
2019-04-29T22:33:20.068Z,100549.48
2019-04-29T22:35:52.230Z,100547.95
2019-04-29T22:38:25.007Z,100549.62
2019-04-29T22:40:58.619Z,100549.48
2019-04-29T22:43:50.188Z,100547.80
2019-04-29T22:46:21.907Z,100542.16
2019-04-29T22:48:53.759Z,100534.58
2019-04-29T22:51:27.193Z,100540.39
2019-04-29T22:53:58.919Z,100550.20
2019-04-29T22:56:30.941Z,100550.16
2019-04-29T22:59:02.935Z,100543.22
2019-04-29T23:01:36.362Z,100542.09
2019-04-29T23:04:09.608Z,100535.03
2019-04-29T23:06:46.597Z,100524.74
2019-04-29T23:09:15.371Z,100526.44
2019-04-29T23:11:47.554Z,100523.11
2019-04-29T23:14:19.321Z,100525.00
2019-04-29T23:16:52.867Z,100517.18
2019-04-29T23:19:26.054Z,100508.63
2019-04-29T23:22:16.973Z,100513.47
2019-04-29T23:24:59.143Z,100511.16
2019-04-29T23:27:30.969Z,100507.89
2019-04-29T23:30:02.867Z,100498.85
2019-04-29T23:32:39.545Z,100492.18
2019-04-29T23:35:10.034Z,100500.68
2019-04-29T23:37:41.939Z,100505.11
2019-04-29T23:40:14.069Z,100511.48
2019-04-29T23:42:47.985Z,100512.20
2019-04-29T23:45:21.303Z,100504.81
2019-04-29T23:47:55.409Z,100508.69
2019-04-29T23:50:28.137Z,100511.59
2019-04-29T23:52:59.673Z,100504.70
2019-04-29T23:55:31.375Z,100502.02
2019-04-29T23:58:07.793Z,100495.34
